sensor_id;sensor_type;location;lat;lon;timestamp;P1;durP1;ratioP1;P2;durP2;ratioP2
36449;SDS011;22475;51.390;7.180;2023-02-21T00:02:33;7.85;;;5.60;;
36449;SDS011;22475;51.390;7.180;2023-02-21T00:05:18;8.05;;;5.47;;
36449;SDS011;22475;51.390;7.180;2023-02-21T00:08:02;7.38;;;5.43;;
36449;SDS011;22475;51.390;7.180;2023-02-21T00:10:47;9.13;;;6.10;;
36449;SDS011;22475;51.390;7.180;2023-02-21T00:13:35;14.48;;;5.82;;
36449;SDS011;22475;51.390;7.180;2023-02-21T00:16:20;8.77;;;5.68;;
36449;SDS011;22475;51.390;7.180;2023-02-21T00:19:05;7.80;;;5.50;;
36449;SDS011;22475;51.390;7.180;2023-02-21T00:21:49;12.18;;;8.52;;
36449;SDS011;22475;51.390;7.180;2023-02-21T00:24:34;8.95;;;5.82;;
36449;SDS011;22475;51.390;7.180;2023-02-21T00:27:19;19.48;;;8.65;;
36449;SDS011;22475;51.390;7.180;2023-02-21T00:30:05;12.80;;;8.10;;
36449;SDS011;22475;51.390;7.180;2023-02-21T00:32:50;9.32;;;6.85;;
36449;SDS011;22475;51.390;7.180;2023-02-21T00:35:35;15.15;;;8.02;;
36449;SDS011;22475;51.390;7.180;2023-02-21T00:38:19;9.23;;;5.90;;
36449;SDS011;22475;51.390;7.180;2023-02-21T00:41:03;10.02;;;6.25;;
36449;SDS011;22475;51.390;7.180;2023-02-21T00:43:47;11.68;;;7.63;;
36449;SDS011;22475;51.390;7.180;2023-02-21T00:46:33;18.52;;;10.27;;
36449;SDS011;22475;51.390;7.180;2023-02-21T00:49:17;7.93;;;7.13;;
36449;SDS011;22475;51.390;7.180;2023-02-21T00:52:01;9.30;;;5.65;;
36449;SDS011;22475;51.390;7.180;2023-02-21T00:54:45;26.40;;;11.30;;
36449;SDS011;22475;51.390;7.180;2023-02-21T00:57:29;6.88;;;5.40;;
36449;SDS011;22475;51.390;7.180;2023-02-21T01:00:16;6.32;;;5.72;;
36449;SDS011;22475;51.390;7.180;2023-02-21T01:03:04;14.02;;;7.97;;
36449;SDS011;22475;51.390;7.180;2023-02-21T01:05:48;16.10;;;8.25;;
36449;SDS011;22475;51.390;7.180;2023-02-21T01:08:33;9.88;;;5.72;;
36449;SDS011;22475;51.390;7.180;2023-02-21T01:11:17;13.07;;;6.40;;
36449;SDS011;22475;51.390;7.180;2023-02-21T01:14:04;7.13;;;5.68;;
36449;SDS011;22475;51.390;7.180;2023-02-21T01:16:48;8.52;;;6.15;;
36449;SDS011;22475;51.390;7.180;2023-02-21T01:19:34;8.65;;;6.40;;
36449;SDS011;22475;51.390;7.180;2023-02-21T01:22:18;20.63;;;12.18;;
36449;SDS011;22475;51.390;7.180;2023-02-21T01:25:03;7.75;;;6.55;;
36449;SDS011;22475;51.390;7.180;2023-02-21T01:27:48;13.70;;;9.77;;
36449;SDS011;22475;51.390;7.180;2023-02-21T01:30:32;8.65;;;6.25;;
36449;SDS011;22475;51.390;7.180;2023-02-21T01:33:16;7.97;;;5.72;;
36449;SDS011;22475;51.390;7.180;2023-02-21T01:36:01;9.65;;;7.75;;
36449;SDS011;22475;51.390;7.180;2023-02-21T01:38:47;21.90;;;12.80;;
36449;SDS011;22475;51.390;7.180;2023-02-21T01:41:31;14.85;;;10.00;;
36449;SDS011;22475;51.390;7.180;2023-02-21T01:44:30;15.18;;;9.27;;
36449;SDS011;22475;51.390;7.180;2023-02-21T01:47:17;9.48;;;6.25;;
36449;SDS011;22475;51.390;7.180;2023-02-21T01:50:04;23.65;;;13.68;;
36449;SDS011;22475;51.390;7.180;2023-02-21T01:52:52;13.30;;;8.75;;
36449;SDS011;22475;51.390;7.180;2023-02-21T01:55:37;17.58;;;11.20;;
36449;SDS011;22475;51.390;7.180;2023-02-21T01:58:23;13.60;;;6.85;;
36449;SDS011;22475;51.390;7.180;2023-02-21T02:01:09;13.05;;;8.10;;
36449;SDS011;22475;51.390;7.180;2023-02-21T02:04:01;9.27;;;6.25;;
36449;SDS011;22475;51.390;7.180;2023-02-21T02:06:46;25.60;;;13.52;;
36449;SDS011;22475;51.390;7.180;2023-02-21T02:09:32;9.32;;;6.88;;
36449;SDS011;22475;51.390;7.180;2023-02-21T02:12:25;10.65;;;7.20;;
36449;SDS011;22475;51.390;7.180;2023-02-21T02:15:25;13.05;;;7.50;;
36449;SDS011;22475;51.390;7.180;2023-02-21T02:18:14;9.50;;;6.13;;
36449;SDS011;22475;51.390;7.180;2023-02-21T02:24:10;9.40;;;6.30;;
36449;SDS011;22475;51.390;7.180;2023-02-21T02:27:13;8.65;;;7.25;;
36449;SDS011;22475;51.390;7.180;2023-02-21T02:30:14;13.90;;;8.43;;
36449;SDS011;22475;51.390;7.180;2023-02-21T02:33:25;8.85;;;6.80;;
36449;SDS011;22475;51.390;7.180;2023-02-21T02:38:45;15.73;;;8.63;;
36449;SDS011;22475;51.390;7.180;2023-02-21T02:41:19;10.63;;;7.80;;
36449;SDS011;22475;51.390;7.180;2023-02-21T02:43:53;17.00;;;10.50;;
36449;SDS011;22475;51.390;7.180;2023-02-21T02:46:23;12.15;;;7.50;;
36449;SDS011;22475;51.390;7.180;2023-02-21T02:48:54;21.52;;;10.30;;
36449;SDS011;22475;51.390;7.180;2023-02-21T02:51:26;17.63;;;9.65;;
36449;SDS011;22475;51.390;7.180;2023-02-21T02:53:54;24.02;;;12.40;;
36449;SDS011;22475;51.390;7.180;2023-02-21T02:56:21;25.45;;;11.18;;
36449;SDS011;22475;51.390;7.180;2023-02-21T02:58:51;16.17;;;9.52;;
36449;SDS011;22475;51.390;7.180;2023-02-21T03:04:31;17.08;;;9.27;;
36449;SDS011;22475;51.390;7.180;2023-02-21T03:07:23;12.13;;;7.65;;
36449;SDS011;22475;51.390;7.180;2023-02-21T03:09:57;9.07;;;6.65;;
36449;SDS011;22475;51.390;7.180;2023-02-21T03:12:33;12.05;;;7.00;;
36449;SDS011;22475;51.390;7.180;2023-02-21T03:15:04;13.20;;;8.80;;
36449;SDS011;22475;51.390;7.180;2023-02-21T03:17:36;10.82;;;7.35;;
36449;SDS011;22475;51.390;7.180;2023-02-21T03:20:07;9.13;;;6.38;;
36449;SDS011;22475;51.390;7.180;2023-02-21T03:22:37;15.20;;;8.68;;
36449;SDS011;22475;51.390;7.180;2023-02-21T03:25:08;13.10;;;8.18;;
36449;SDS011;22475;51.390;7.180;2023-02-21T03:27:36;27.17;;;13.27;;
36449;SDS011;22475;51.390;7.180;2023-02-21T03:30:05;29.40;;;14.10;;
36449;SDS011;22475;51.390;7.180;2023-02-21T03:32:34;16.88;;;9.80;;
36449;SDS011;22475;51.390;7.180;2023-02-21T03:35:03;15.82;;;8.57;;
36449;SDS011;22475;51.390;7.180;2023-02-21T03:37:32;11.95;;;8.43;;
36449;SDS011;22475;51.390;7.180;2023-02-21T03:40:02;16.63;;;9.90;;
36449;SDS011;22475;51.390;7.180;2023-02-21T03:42:31;16.92;;;8.73;;
36449;SDS011;22475;51.390;7.180;2023-02-21T03:44:58;15.52;;;8.50;;
36449;SDS011;22475;51.390;7.180;2023-02-21T03:47:24;17.48;;;10.40;;
36449;SDS011;22475;51.390;7.180;2023-02-21T03:49:51;17.20;;;9.20;;
36449;SDS011;22475;51.390;7.180;2023-02-21T03:52:18;24.52;;;12.93;;
36449;SDS011;22475;51.390;7.180;2023-02-21T03:54:45;13.98;;;10.07;;
36449;SDS011;22475;51.390;7.180;2023-02-21T03:57:13;14.80;;;7.80;;
36449;SDS011;22475;51.390;7.180;2023-02-21T03:59:39;12.68;;;7.55;;
36449;SDS011;22475;51.390;7.180;2023-02-21T04:02:06;17.33;;;10.63;;
36449;SDS011;22475;51.390;7.180;2023-02-21T04:04:33;12.20;;;7.95;;
36449;SDS011;22475;51.390;7.180;2023-02-21T04:07:00;10.38;;;7.85;;
36449;SDS011;22475;51.390;7.180;2023-02-21T04:09:27;15.30;;;9.13;;
36449;SDS011;22475;51.390;7.180;2023-02-21T04:11:54;16.67;;;10.35;;
36449;SDS011;22475;51.390;7.180;2023-02-21T04:14:22;14.73;;;9.60;;
36449;SDS011;22475;51.390;7.180;2023-02-21T04:16:49;27.70;;;11.30;;
36449;SDS011;22475;51.390;7.180;2023-02-21T04:19:16;15.90;;;9.75;;
36449;SDS011;22475;51.390;7.180;2023-02-21T04:21:42;24.85;;;13.95;;
36449;SDS011;22475;51.390;7.180;2023-02-21T04:24:09;20.98;;;13.35;;
36449;SDS011;22475;51.390;7.180;2023-02-21T04:26:36;14.63;;;9.77;;
36449;SDS011;22475;51.390;7.180;2023-02-21T04:29:03;20.75;;;9.82;;
36449;SDS011;22475;51.390;7.180;2023-02-21T04:31:32;14.43;;;8.95;;
36449;SDS011;22475;51.390;7.180;2023-02-21T04:33:59;27.52;;;14.20;;
36449;SDS011;22475;51.390;7.180;2023-02-21T04:36:26;39.40;;;19.42;;
36449;SDS011;22475;51.390;7.180;2023-02-21T04:38:53;22.50;;;11.73;;
36449;SDS011;22475;51.390;7.180;2023-02-21T04:41:20;25.88;;;13.02;;
36449;SDS011;22475;51.390;7.180;2023-02-21T04:43:47;15.32;;;9.77;;
36449;SDS011;22475;51.390;7.180;2023-02-21T04:46:14;18.15;;;10.30;;
36449;SDS011;22475;51.390;7.180;2023-02-21T04:48:44;22.52;;;13.10;;
36449;SDS011;22475;51.390;7.180;2023-02-21T04:51:12;47.25;;;20.38;;
36449;SDS011;22475;51.390;7.180;2023-02-21T04:53:39;27.05;;;13.75;;
36449;SDS011;22475;51.390;7.180;2023-02-21T04:56:06;16.55;;;9.52;;
36449;SDS011;22475;51.390;7.180;2023-02-21T04:58:33;29.73;;;15.43;;
36449;SDS011;22475;51.390;7.180;2023-02-21T05:00:59;15.85;;;10.20;;
36449;SDS011;22475;51.390;7.180;2023-02-21T05:03:26;31.38;;;16.13;;
36449;SDS011;22475;51.390;7.180;2023-02-21T05:05:54;46.35;;;21.05;;
36449;SDS011;22475;51.390;7.180;2023-02-21T05:08:21;23.98;;;12.15;;
36449;SDS011;22475;51.390;7.180;2023-02-21T05:10:49;39.10;;;20.60;;
36449;SDS011;22475;51.390;7.180;2023-02-21T05:13:19;21.30;;;13.23;;
36449;SDS011;22475;51.390;7.180;2023-02-21T05:15:46;17.08;;;10.15;;
36449;SDS011;22475;51.390;7.180;2023-02-21T05:18:14;39.30;;;16.58;;
36449;SDS011;22475;51.390;7.180;2023-02-21T05:20:47;38.85;;;18.27;;
36449;SDS011;22475;51.390;7.180;2023-02-21T05:23:15;20.38;;;11.10;;
36449;SDS011;22475;51.390;7.180;2023-02-21T05:25:42;23.77;;;10.60;;
36449;SDS011;22475;51.390;7.180;2023-02-21T05:28:10;23.30;;;11.95;;
36449;SDS011;22475;51.390;7.180;2023-02-21T05:30:36;50.08;;;23.20;;
36449;SDS011;22475;51.390;7.180;2023-02-21T05:33:03;21.95;;;13.85;;
36449;SDS011;22475;51.390;7.180;2023-02-21T05:35:30;32.25;;;16.73;;
36449;SDS011;22475;51.390;7.180;2023-02-21T05:37:57;18.52;;;11.35;;
36449;SDS011;22475;51.390;7.180;2023-02-21T05:40:25;32.40;;;16.02;;
36449;SDS011;22475;51.390;7.180;2023-02-21T05:42:51;24.55;;;13.00;;
36449;SDS011;22475;51.390;7.180;2023-02-21T05:45:18;22.52;;;13.27;;
36449;SDS011;22475;51.390;7.180;2023-02-21T05:47:45;47.17;;;22.05;;
36449;SDS011;22475;51.390;7.180;2023-02-21T05:50:12;45.70;;;24.23;;
36449;SDS011;22475;51.390;7.180;2023-02-21T05:52:40;52.33;;;23.33;;
36449;SDS011;22475;51.390;7.180;2023-02-21T05:55:06;21.88;;;11.15;;
36449;SDS011;22475;51.390;7.180;2023-02-21T05:57:37;21.88;;;11.52;;
36449;SDS011;22475;51.390;7.180;2023-02-21T06:00:05;18.27;;;10.15;;
36449;SDS011;22475;51.390;7.180;2023-02-21T06:02:32;19.55;;;9.80;;
36449;SDS011;22475;51.390;7.180;2023-02-21T06:04:59;24.63;;;11.70;;
36449;SDS011;22475;51.390;7.180;2023-02-21T06:07:26;28.17;;;15.43;;
36449;SDS011;22475;51.390;7.180;2023-02-21T06:09:52;18.42;;;10.70;;
36449;SDS011;22475;51.390;7.180;2023-02-21T06:12:19;28.95;;;15.27;;
36449;SDS011;22475;51.390;7.180;2023-02-21T06:14:47;26.13;;;13.02;;
36449;SDS011;22475;51.390;7.180;2023-02-21T06:17:14;25.92;;;12.90;;
36449;SDS011;22475;51.390;7.180;2023-02-21T06:19:40;21.63;;;12.70;;
36449;SDS011;22475;51.390;7.180;2023-02-21T06:22:07;23.80;;;12.35;;
36449;SDS011;22475;51.390;7.180;2023-02-21T06:24:34;38.38;;;19.20;;
36449;SDS011;22475;51.390;7.180;2023-02-21T06:27:01;41.47;;;18.70;;
36449;SDS011;22475;51.390;7.180;2023-02-21T06:29:27;28.80;;;16.15;;
36449;SDS011;22475;51.390;7.180;2023-02-21T06:31:56;44.15;;;21.42;;
36449;SDS011;22475;51.390;7.180;2023-02-21T06:34:24;26.20;;;14.15;;
36449;SDS011;22475;51.390;7.180;2023-02-21T06:36:51;23.13;;;12.48;;
36449;SDS011;22475;51.390;7.180;2023-02-21T06:39:18;33.40;;;17.48;;
36449;SDS011;22475;51.390;7.180;2023-02-21T06:41:45;25.95;;;13.30;;
36449;SDS011;22475;51.390;7.180;2023-02-21T06:44:11;26.55;;;11.45;;
36449;SDS011;22475;51.390;7.180;2023-02-21T06:46:38;30.27;;;15.52;;
36449;SDS011;22475;51.390;7.180;2023-02-21T06:49:06;30.02;;;16.77;;
36449;SDS011;22475;51.390;7.180;2023-02-21T06:51:34;22.30;;;12.60;;
36449;SDS011;22475;51.390;7.180;2023-02-21T06:54:01;29.40;;;15.32;;
36449;SDS011;22475;51.390;7.180;2023-02-21T06:56:29;24.50;;;12.68;;
36449;SDS011;22475;51.390;7.180;2023-02-21T06:58:57;38.28;;;19.38;;
36449;SDS011;22475;51.390;7.180;2023-02-21T07:01:25;26.73;;;13.23;;
36449;SDS011;22475;51.390;7.180;2023-02-21T07:03:53;27.35;;;13.13;;
36449;SDS011;22475;51.390;7.180;2023-02-21T07:06:21;59.95;;;25.30;;
36449;SDS011;22475;51.390;7.180;2023-02-21T07:08:48;42.83;;;20.45;;
36449;SDS011;22475;51.390;7.180;2023-02-21T07:11:15;39.38;;;18.63;;
36449;SDS011;22475;51.390;7.180;2023-02-21T07:13:45;23.92;;;13.70;;
36449;SDS011;22475;51.390;7.180;2023-02-21T07:16:14;23.77;;;12.98;;
36449;SDS011;22475;51.390;7.180;2023-02-21T07:18:42;26.10;;;12.63;;
36449;SDS011;22475;51.390;7.180;2023-02-21T07:21:08;24.25;;;13.27;;
36449;SDS011;22475;51.390;7.180;2023-02-21T07:23:36;23.77;;;13.40;;
36449;SDS011;22475;51.390;7.180;2023-02-21T07:26:03;40.72;;;17.75;;
36449;SDS011;22475;51.390;7.180;2023-02-21T07:28:30;49.95;;;22.42;;
36449;SDS011;22475;51.390;7.180;2023-02-21T07:30:57;21.98;;;12.82;;
36449;SDS011;22475;51.390;7.180;2023-02-21T07:33:24;49.58;;;21.55;;
36449;SDS011;22475;51.390;7.180;2023-02-21T07:35:51;28.92;;;14.65;;
36449;SDS011;22475;51.390;7.180;2023-02-21T07:38:21;33.55;;;15.45;;
36449;SDS011;22475;51.390;7.180;2023-02-21T07:40:52;39.47;;;17.75;;
36449;SDS011;22475;51.390;7.180;2023-02-21T07:43:20;30.20;;;15.90;;
36449;SDS011;22475;51.390;7.180;2023-02-21T07:45:46;19.77;;;12.00;;
36449;SDS011;22475;51.390;7.180;2023-02-21T07:48:13;33.97;;;17.08;;
36449;SDS011;22475;51.390;7.180;2023-02-21T07:50:40;27.70;;;14.48;;
36449;SDS011;22475;51.390;7.180;2023-02-21T07:53:07;31.23;;;16.05;;
36449;SDS011;22475;51.390;7.180;2023-02-21T07:55:34;34.78;;;15.88;;
36449;SDS011;22475;51.390;7.180;2023-02-21T07:58:02;22.77;;;12.40;;
36449;SDS011;22475;51.390;7.180;2023-02-21T08:00:29;26.73;;;13.43;;
36449;SDS011;22475;51.390;7.180;2023-02-21T08:02:56;27.00;;;12.95;;
36449;SDS011;22475;51.390;7.180;2023-02-21T08:05:23;27.92;;;13.57;;
36449;SDS011;22475;51.390;7.180;2023-02-21T08:07:50;25.38;;;13.02;;
36449;SDS011;22475;51.390;7.180;2023-02-21T08:10:19;34.60;;;13.90;;
36449;SDS011;22475;51.390;7.180;2023-02-21T08:12:47;28.25;;;13.70;;
36449;SDS011;22475;51.390;7.180;2023-02-21T08:15:15;21.92;;;12.25;;
36449;SDS011;22475;51.390;7.180;2023-02-21T08:17:42;24.35;;;12.82;;
36449;SDS011;22475;51.390;7.180;2023-02-21T08:20:09;35.30;;;16.67;;
36449;SDS011;22475;51.390;7.180;2023-02-21T08:22:36;36.20;;;16.70;;
36449;SDS011;22475;51.390;7.180;2023-02-21T08:25:03;28.35;;;13.88;;
36449;SDS011;22475;51.390;7.180;2023-02-21T08:27:30;32.85;;;15.38;;
36449;SDS011;22475;51.390;7.180;2023-02-21T08:29:57;33.15;;;15.95;;
36449;SDS011;22475;51.390;7.180;2023-02-21T08:32:25;31.13;;;15.45;;
36449;SDS011;22475;51.390;7.180;2023-02-21T08:34:51;33.67;;;15.38;;
36449;SDS011;22475;51.390;7.180;2023-02-21T08:37:18;48.45;;;17.73;;
36449;SDS011;22475;51.390;7.180;2023-02-21T08:39:45;37.65;;;16.73;;
36449;SDS011;22475;51.390;7.180;2023-02-21T08:42:12;26.25;;;14.02;;
36449;SDS011;22475;51.390;7.180;2023-02-21T08:44:41;42.13;;;17.83;;
36449;SDS011;22475;51.390;7.180;2023-02-21T08:47:08;35.13;;;15.93;;
36449;SDS011;22475;51.390;7.180;2023-02-21T08:49:36;25.33;;;12.30;;
36449;SDS011;22475;51.390;7.180;2023-02-21T08:52:06;34.10;;;15.00;;
36449;SDS011;22475;51.390;7.180;2023-02-21T08:54:34;23.98;;;13.45;;
36449;SDS011;22475;51.390;7.180;2023-02-21T08:57:01;27.55;;;13.80;;
36449;SDS011;22475;51.390;7.180;2023-02-21T08:59:28;28.70;;;14.73;;
36449;SDS011;22475;51.390;7.180;2023-02-21T09:01:57;27.33;;;13.95;;
36449;SDS011;22475;51.390;7.180;2023-02-21T09:04:24;20.05;;;10.73;;
36449;SDS011;22475;51.390;7.180;2023-02-21T09:06:53;27.83;;;13.38;;
36449;SDS011;22475;51.390;7.180;2023-02-21T09:09:19;26.65;;;12.57;;
36449;SDS011;22475;51.390;7.180;2023-02-21T09:11:47;22.90;;;12.10;;
36449;SDS011;22475;51.390;7.180;2023-02-21T09:14:14;19.73;;;11.90;;
36449;SDS011;22475;51.390;7.180;2023-02-21T09:16:41;21.95;;;11.77;;
36449;SDS011;22475;51.390;7.180;2023-02-21T09:19:08;32.25;;;13.60;;
36449;SDS011;22475;51.390;7.180;2023-02-21T09:21:35;25.02;;;13.48;;
36449;SDS011;22475;51.390;7.180;2023-02-21T09:24:10;22.52;;;11.43;;
36449;SDS011;22475;51.390;7.180;2023-02-21T09:26:37;21.90;;;11.43;;
36449;SDS011;22475;51.390;7.180;2023-02-21T09:29:04;19.00;;;10.50;;
36449;SDS011;22475;51.390;7.180;2023-02-21T09:31:31;27.50;;;12.38;;
36449;SDS011;22475;51.390;7.180;2023-02-21T09:33:57;17.33;;;9.57;;
36449;SDS011;22475;51.390;7.180;2023-02-21T09:36:24;18.27;;;10.68;;
36449;SDS011;22475;51.390;7.180;2023-02-21T09:38:51;22.92;;;10.85;;
36449;SDS011;22475;51.390;7.180;2023-02-21T09:41:19;27.65;;;11.95;;
36449;SDS011;22475;51.390;7.180;2023-02-21T09:43:46;18.60;;;9.15;;
36449;SDS011;22475;51.390;7.180;2023-02-21T09:46:17;22.50;;;12.23;;
36449;SDS011;22475;51.390;7.180;2023-02-21T09:48:46;20.73;;;11.07;;
36449;SDS011;22475;51.390;7.180;2023-02-21T09:51:14;17.80;;;10.57;;
36449;SDS011;22475;51.390;7.180;2023-02-21T09:53:43;21.75;;;11.13;;
36449;SDS011;22475;51.390;7.180;2023-02-21T09:56:12;22.10;;;11.27;;
36449;SDS011;22475;51.390;7.180;2023-02-21T09:58:44;22.38;;;11.55;;
36449;SDS011;22475;51.390;7.180;2023-02-21T10:01:15;22.17;;;12.18;;
36449;SDS011;22475;51.390;7.180;2023-02-21T10:03:50;17.70;;;9.45;;
36449;SDS011;22475;51.390;7.180;2023-02-21T10:06:26;27.08;;;11.23;;
36449;SDS011;22475;51.390;7.180;2023-02-21T10:09:05;16.63;;;8.73;;
36449;SDS011;22475;51.390;7.180;2023-02-21T10:11:40;21.83;;;9.73;;
36449;SDS011;22475;51.390;7.180;2023-02-21T10:14:25;19.65;;;10.77;;
36449;SDS011;22475;51.390;7.180;2023-02-21T10:16:58;17.48;;;9.15;;
36449;SDS011;22475;51.390;7.180;2023-02-21T10:19:30;12.75;;;8.25;;
36449;SDS011;22475;51.390;7.180;2023-02-21T10:22:00;17.20;;;9.55;;
36449;SDS011;22475;51.390;7.180;2023-02-21T10:24:34;19.77;;;10.25;;
36449;SDS011;22475;51.390;7.180;2023-02-21T10:27:03;17.95;;;8.70;;
36449;SDS011;22475;51.390;7.180;2023-02-21T10:29:36;21.35;;;11.27;;
36449;SDS011;22475;51.390;7.180;2023-02-21T10:32:07;13.55;;;8.80;;
36449;SDS011;22475;51.390;7.180;2023-02-21T10:34:34;17.33;;;8.82;;
36449;SDS011;22475;51.390;7.180;2023-02-21T10:37:02;16.95;;;8.85;;
36449;SDS011;22475;51.390;7.180;2023-02-21T10:39:39;14.20;;;8.15;;
36449;SDS011;22475;51.390;7.180;2023-02-21T10:42:09;12.73;;;8.45;;
36449;SDS011;22475;51.390;7.180;2023-02-21T10:44:43;17.55;;;10.10;;
36449;SDS011;22475;51.390;7.180;2023-02-21T10:47:13;20.85;;;10.05;;
36449;SDS011;22475;51.390;7.180;2023-02-21T10:49:45;16.20;;;7.88;;
36449;SDS011;22475;51.390;7.180;2023-02-21T10:52:17;16.20;;;8.98;;
36449;SDS011;22475;51.390;7.180;2023-02-21T10:54:59;12.70;;;8.13;;
36449;SDS011;22475;51.390;7.180;2023-02-21T10:57:27;13.63;;;7.70;;
36449;SDS011;22475;51.390;7.180;2023-02-21T10:59:57;10.60;;;6.45;;
36449;SDS011;22475;51.390;7.180;2023-02-21T11:02:28;13.30;;;7.57;;
36449;SDS011;22475;51.390;7.180;2023-02-21T11:05:07;12.35;;;6.80;;
36449;SDS011;22475;51.390;7.180;2023-02-21T11:07:36;9.90;;;7.07;;
36449;SDS011;22475;51.390;7.180;2023-02-21T11:10:09;14.10;;;7.07;;
36449;SDS011;22475;51.390;7.180;2023-02-21T11:13:00;15.10;;;7.35;;
36449;SDS011;22475;51.390;7.180;2023-02-21T11:15:30;14.07;;;8.10;;
36449;SDS011;22475;51.390;7.180;2023-02-21T11:18:04;18.50;;;8.27;;
36449;SDS011;22475;51.390;7.180;2023-02-21T11:20:37;13.60;;;7.55;;
36449;SDS011;22475;51.390;7.180;2023-02-21T11:23:04;14.65;;;6.85;;
36449;SDS011;22475;51.390;7.180;2023-02-21T11:25:42;14.35;;;7.80;;
36449;SDS011;22475;51.390;7.180;2023-02-21T11:28:16;14.75;;;7.80;;
36449;SDS011;22475;51.390;7.180;2023-02-21T11:30:47;11.18;;;6.80;;
36449;SDS011;22475;51.390;7.180;2023-02-21T11:33:17;12.65;;;6.82;;
36449;SDS011;22475;51.390;7.180;2023-02-21T11:35:46;9.30;;;5.63;;
36449;SDS011;22475;51.390;7.180;2023-02-21T11:38:30;9.50;;;6.53;;
36449;SDS011;22475;51.390;7.180;2023-02-21T11:41:00;16.08;;;9.50;;
36449;SDS011;22475;51.390;7.180;2023-02-21T11:43:28;10.57;;;6.60;;
36449;SDS011;22475;51.390;7.180;2023-02-21T11:46:01;15.38;;;8.23;;
36449;SDS011;22475;51.390;7.180;2023-02-21T11:48:32;12.65;;;7.30;;
36449;SDS011;22475;51.390;7.180;2023-02-21T11:51:04;9.40;;;6.47;;
36449;SDS011;22475;51.390;7.180;2023-02-21T11:53:39;14.02;;;8.63;;
36449;SDS011;22475;51.390;7.180;2023-02-21T11:56:23;23.77;;;12.43;;
36449;SDS011;22475;51.390;7.180;2023-02-21T11:58:59;9.68;;;6.45;;
36449;SDS011;22475;51.390;7.180;2023-02-21T12:01:33;9.85;;;5.30;;
36449;SDS011;22475;51.390;7.180;2023-02-21T12:04:09;14.10;;;7.88;;
36449;SDS011;22475;51.390;7.180;2023-02-21T12:06:59;18.08;;;10.10;;
36449;SDS011;22475;51.390;7.180;2023-02-21T12:09:37;12.13;;;5.43;;
36449;SDS011;22475;51.390;7.180;2023-02-21T12:12:17;12.32;;;5.88;;
36449;SDS011;22475;51.390;7.180;2023-02-21T12:14:54;15.60;;;8.50;;
36449;SDS011;22475;51.390;7.180;2023-02-21T12:17:39;26.30;;;10.48;;
36449;SDS011;22475;51.390;7.180;2023-02-21T12:20:42;6.47;;;4.40;;
36449;SDS011;22475;51.390;7.180;2023-02-21T12:23:22;14.02;;;6.03;;
36449;SDS011;22475;51.390;7.180;2023-02-21T12:26:01;9.70;;;5.82;;
36449;SDS011;22475;51.390;7.180;2023-02-21T12:28:45;26.38;;;11.30;;
36449;SDS011;22475;51.390;7.180;2023-02-21T12:31:27;37.67;;;12.23;;
36449;SDS011;22475;51.390;7.180;2023-02-21T12:34:07;8.48;;;5.15;;
36449;SDS011;22475;51.390;7.180;2023-02-21T12:36:46;12.05;;;8.32;;
36449;SDS011;22475;51.390;7.180;2023-02-21T12:39:38;8.82;;;4.68;;
36449;SDS011;22475;51.390;7.180;2023-02-21T12:42:25;7.85;;;5.13;;
36449;SDS011;22475;51.390;7.180;2023-02-21T12:45:06;29.25;;;11.65;;
36449;SDS011;22475;51.390;7.180;2023-02-21T12:47:50;11.48;;;6.40;;
36449;SDS011;22475;51.390;7.180;2023-02-21T12:50:23;11.40;;;5.47;;
36449;SDS011;22475;51.390;7.180;2023-02-21T12:52:55;9.50;;;6.20;;
36449;SDS011;22475;51.390;7.180;2023-02-21T12:55:28;11.85;;;6.22;;
36449;SDS011;22475;51.390;7.180;2023-02-21T12:57:59;6.38;;;5.03;;
36449;SDS011;22475;51.390;7.180;2023-02-21T13:00:30;10.13;;;6.03;;
36449;SDS011;22475;51.390;7.180;2023-02-21T13:03:03;22.83;;;12.35;;
36449;SDS011;22475;51.390;7.180;2023-02-21T13:05:44;9.70;;;6.43;;
36449;SDS011;22475;51.390;7.180;2023-02-21T13:08:14;22.67;;;11.18;;
36449;SDS011;22475;51.390;7.180;2023-02-21T13:10:48;17.95;;;8.02;;
36449;SDS011;22475;51.390;7.180;2023-02-21T13:13:18;39.22;;;16.42;;
36449;SDS011;22475;51.390;7.180;2023-02-21T13:18:18;37.05;;;15.07;;
36449;SDS011;22475;51.390;7.180;2023-02-21T13:20:53;13.27;;;6.97;;
36449;SDS011;22475;51.390;7.180;2023-02-21T13:23:39;12.48;;;6.70;;
36449;SDS011;22475;51.390;7.180;2023-02-21T13:26:31;14.30;;;7.20;;
36449;SDS011;22475;51.390;7.180;2023-02-21T13:29:12;12.32;;;6.40;;
36449;SDS011;22475;51.390;7.180;2023-02-21T13:31:43;11.60;;;6.55;;
36449;SDS011;22475;51.390;7.180;2023-02-21T13:34:11;8.00;;;6.32;;
36449;SDS011;22475;51.390;7.180;2023-02-21T13:36:44;17.05;;;8.40;;
36449;SDS011;22475;51.390;7.180;2023-02-21T13:39:12;21.15;;;11.00;;
36449;SDS011;22475;51.390;7.180;2023-02-21T13:41:43;12.25;;;6.63;;
36449;SDS011;22475;51.390;7.180;2023-02-21T13:44:15;32.83;;;14.00;;
36449;SDS011;22475;51.390;7.180;2023-02-21T13:49:49;22.98;;;11.32;;
36449;SDS011;22475;51.390;7.180;2023-02-21T13:52:34;29.73;;;15.02;;
36449;SDS011;22475;51.390;7.180;2023-02-21T13:55:25;15.13;;;7.90;;
36449;SDS011;22475;51.390;7.180;2023-02-21T14:03:38;13.82;;;7.65;;
36449;SDS011;22475;51.390;7.180;2023-02-21T14:06:18;14.32;;;7.82;;
36449;SDS011;22475;51.390;7.180;2023-02-21T14:08:58;13.20;;;7.57;;
36449;SDS011;22475;51.390;7.180;2023-02-21T14:11:29;16.48;;;8.88;;
36449;SDS011;22475;51.390;7.180;2023-02-21T14:14:02;24.92;;;10.60;;
36449;SDS011;22475;51.390;7.180;2023-02-21T14:16:31;20.40;;;9.00;;
36449;SDS011;22475;51.390;7.180;2023-02-21T14:19:00;26.98;;;12.23;;
36449;SDS011;22475;51.390;7.180;2023-02-21T14:21:33;32.53;;;14.38;;
36449;SDS011;22475;51.390;7.180;2023-02-21T14:24:03;13.65;;;8.10;;
36449;SDS011;22475;51.390;7.180;2023-02-21T14:26:40;20.67;;;9.70;;
36449;SDS011;22475;51.390;7.180;2023-02-21T14:31:56;17.33;;;8.90;;
36449;SDS011;22475;51.390;7.180;2023-02-21T14:34:41;16.88;;;9.30;;
36449;SDS011;22475;51.390;7.180;2023-02-21T14:37:21;23.85;;;11.50;;
36449;SDS011;22475;51.390;7.180;2023-02-21T14:39:53;29.52;;;14.63;;
36449;SDS011;22475;51.390;7.180;2023-02-21T14:42:26;32.58;;;12.90;;
36449;SDS011;22475;51.390;7.180;2023-02-21T14:45:17;31.10;;;13.85;;
36449;SDS011;22475;51.390;7.180;2023-02-21T14:48:03;25.42;;;12.77;;
36449;SDS011;22475;51.390;7.180;2023-02-21T14:53:59;28.63;;;12.93;;
36449;SDS011;22475;51.390;7.180;2023-02-21T14:56:42;16.73;;;10.43;;
36449;SDS011;22475;51.390;7.180;2023-02-21T14:59:18;20.40;;;9.27;;
36449;SDS011;22475;51.390;7.180;2023-02-21T15:02:00;28.25;;;12.00;;
36449;SDS011;22475;51.390;7.180;2023-02-21T15:04:36;37.70;;;16.15;;
36449;SDS011;22475;51.390;7.180;2023-02-21T15:07:10;26.27;;;13.60;;
36449;SDS011;22475;51.390;7.180;2023-02-21T15:09:43;41.63;;;18.05;;
36449;SDS011;22475;51.390;7.180;2023-02-21T15:12:14;23.60;;;12.98;;
36449;SDS011;22475;51.390;7.180;2023-02-21T15:14:46;42.72;;;18.63;;
36449;SDS011;22475;51.390;7.180;2023-02-21T15:17:15;19.92;;;10.00;;
36449;SDS011;22475;51.390;7.180;2023-02-21T15:19:45;18.85;;;10.57;;
36449;SDS011;22475;51.390;7.180;2023-02-21T15:22:13;35.42;;;16.20;;
36449;SDS011;22475;51.390;7.180;2023-02-21T15:24:44;23.50;;;12.05;;
36449;SDS011;22475;51.390;7.180;2023-02-21T15:27:52;35.67;;;16.08;;
36449;SDS011;22475;51.390;7.180;2023-02-21T15:30:29;51.33;;;18.75;;
36449;SDS011;22475;51.390;7.180;2023-02-21T15:33:04;24.33;;;11.27;;